createdAt,value
2023-03-27T00:00:43.818Z,966.33
2023-03-27T00:01:43.833Z,966.36
2023-03-27T00:02:43.871Z,966.35
2023-03-27T00:03:43.911Z,966.39
2023-03-27T00:04:43.761Z,966.42
2023-03-27T00:05:43.751Z,966.37
2023-03-27T00:06:43.733Z,966.35
2023-03-27T00:07:43.717Z,966.39
2023-03-27T00:08:43.706Z,966.41
2023-03-27T00:09:43.699Z,966.43
2023-03-27T00:10:43.687Z,966.41
2023-03-27T00:11:43.674Z,966.42
2023-03-27T00:12:43.660Z,966.44
2023-03-27T00:13:49.404Z,966.44
2023-03-27T00:14:44.818Z,966.43
2023-03-27T00:15:43.626Z,966.42
2023-03-27T00:16:43.659Z,966.54
2023-03-27T00:17:43.626Z,966.51
2023-03-27T00:18:43.603Z,966.47
2023-03-27T00:19:43.560Z,966.51
2023-03-27T00:20:43.543Z,966.54
2023-03-27T00:21:43.539Z,966.59
2023-03-27T00:22:43.521Z,966.62
2023-03-27T00:23:43.517Z,966.55
2023-03-27T00:24:43.496Z,966.68
2023-03-27T00:25:43.491Z,966.68
2023-03-27T00:26:43.469Z,966.69
2023-03-27T00:27:43.468Z,966.74
2023-03-27T00:28:43.451Z,966.70
2023-03-27T00:29:43.431Z,966.76
2023-03-27T00:30:43.445Z,966.76
2023-03-27T00:31:43.407Z,966.71
2023-03-27T00:32:43.453Z,966.84
2023-03-27T00:33:43.384Z,966.83
2023-03-27T00:34:43.406Z,966.78
2023-03-27T00:35:43.768Z,966.81
2023-03-27T00:36:43.331Z,966.85
2023-03-27T00:37:43.324Z,966.85
2023-03-27T00:38:43.305Z,966.94
2023-03-27T00:39:43.650Z,967.03
2023-03-27T00:40:43.310Z,967.04
2023-03-27T00:41:43.267Z,966.98
2023-03-27T00:42:43.250Z,966.89
2023-03-27T00:43:43.246Z,966.96
2023-03-27T00:44:43.225Z,966.95
2023-03-27T00:45:43.324Z,966.98
2023-03-27T00:46:43.265Z,967.02
2023-03-27T00:47:43.267Z,967.07
2023-03-27T00:48:43.178Z,967.07
2023-03-27T00:49:43.164Z,967.03
2023-03-27T00:50:43.168Z,967.06
2023-03-27T00:51:43.138Z,967.06
2023-03-27T00:52:43.159Z,967.00
2023-03-27T00:53:43.112Z,966.99
2023-03-27T00:54:43.096Z,967.06
2023-03-27T00:55:43.086Z,967.07
2023-03-27T00:56:43.109Z,967.09
2023-03-27T00:57:43.086Z,967.13
2023-03-27T00:58:43.085Z,967.12
2023-03-27T00:59:43.041Z,967.09
2023-03-27T01:00:43.015Z,967.08
2023-03-27T01:01:43.041Z,967.09
2023-03-27T01:02:43.056Z,967.14
2023-03-27T01:03:43.065Z,967.12
2023-03-27T01:04:42.967Z,967.19
2023-03-27T01:05:42.952Z,967.16
2023-03-27T01:06:42.960Z,967.24
2023-03-27T01:07:42.924Z,967.17
2023-03-27T01:08:43.937Z,967.29
2023-03-27T01:09:42.896Z,967.28
2023-03-27T01:10:42.885Z,967.31
2023-03-27T01:11:42.879Z,967.30
2023-03-27T01:12:42.856Z,967.26
2023-03-27T01:13:42.846Z,967.38
2023-03-27T01:14:42.828Z,967.32
2023-03-27T01:15:42.825Z,967.30
2023-03-27T01:16:42.796Z,967.35
2023-03-27T01:17:42.887Z,967.34
2023-03-27T01:18:42.764Z,967.36
2023-03-27T01:19:42.762Z,967.40
2023-03-27T01:20:42.738Z,967.38
2023-03-27T01:21:42.727Z,967.39
2023-03-27T01:22:42.733Z,967.48
2023-03-27T01:23:59.763Z,967.41
2023-03-27T01:24:43.718Z,967.43
2023-03-27T01:25:42.681Z,967.48
2023-03-27T01:26:42.669Z,967.49
2023-03-27T01:27:42.649Z,967.47
2023-03-27T01:28:42.643Z,967.63
2023-03-27T01:29:42.617Z,967.58
2023-03-27T01:30:42.608Z,967.64
2023-03-27T01:31:42.622Z,967.55
2023-03-27T01:32:42.596Z,967.59
2023-03-27T01:33:42.568Z,967.72
2023-03-27T01:34:42.909Z,967.64
2023-03-27T01:35:42.555Z,967.63
2023-03-27T01:36:42.521Z,967.75
2023-03-27T01:37:42.509Z,967.81
2023-03-27T01:38:42.521Z,967.81
2023-03-27T01:39:42.483Z,967.82
2023-03-27T01:40:42.472Z,967.90
2023-03-27T01:41:42.464Z,967.89
2023-03-27T01:42:42.450Z,967.95
2023-03-27T01:43:42.437Z,967.84
2023-03-27T01:44:45.280Z,967.95
2023-03-27T01:45:42.398Z,968.02
2023-03-27T01:46:42.423Z,967.98
2023-03-27T01:47:42.411Z,968.01
2023-03-27T01:48:42.365Z,968.13
2023-03-27T01:49:42.343Z,967.95
2023-03-27T01:50:42.342Z,968.12
2023-03-27T01:51:42.321Z,968.06
2023-03-27T01:52:42.310Z,968.08
2023-03-27T01:53:42.302Z,968.07
2023-03-27T01:54:42.313Z,968.15
2023-03-27T01:55:42.265Z,968.13
2023-03-27T01:56:42.277Z,968.12
2023-03-27T01:57:49.233Z,968.20
2023-03-27T01:58:43.251Z,968.20
2023-03-27T01:59:42.214Z,968.21
2023-03-27T02:00:51.921Z,968.21
2023-03-27T02:01:43.343Z,968.32
2023-03-27T02:02:42.203Z,968.36
2023-03-27T02:03:42.155Z,968.25
2023-03-27T02:04:42.174Z,968.38
2023-03-27T02:05:42.129Z,968.33
2023-03-27T02:06:42.120Z,968.35
2023-03-27T02:07:42.106Z,968.45
2023-03-27T02:08:42.101Z,968.47
2023-03-27T02:09:42.081Z,968.41
2023-03-27T02:10:42.084Z,968.50
2023-03-27T02:11:42.044Z,968.46
2023-03-27T02:12:42.038Z,968.53
2023-03-27T02:13:42.021Z,968.58
2023-03-27T02:14:42.007Z,968.44
2023-03-27T02:15:41.998Z,968.56
2023-03-27T02:16:42.012Z,968.54
2023-03-27T02:17:42.000Z,968.64
2023-03-27T02:18:41.955Z,968.55
2023-03-27T02:19:42.299Z,968.64
2023-03-27T02:20:41.930Z,968.73
2023-03-27T02:21:41.920Z,968.66
2023-03-27T02:22:41.897Z,968.70
2023-03-27T02:23:41.896Z,968.74
2023-03-27T02:24:41.871Z,968.79
2023-03-27T02:25:41.861Z,968.78
2023-03-27T02:26:41.871Z,968.82
2023-03-27T02:27:41.831Z,968.81
2023-03-27T02:28:41.826Z,968.95
2023-03-27T02:29:41.806Z,969.04
2023-03-27T02:30:41.790Z,969.00
2023-03-27T02:31:41.840Z,969.03
2023-03-27T02:32:41.878Z,969.05
2023-03-27T02:33:41.743Z,969.04
2023-03-27T02:34:41.737Z,969.20
2023-03-27T02:35:41.730Z,969.20
2023-03-27T02:36:41.710Z,969.18
2023-03-27T02:37:41.689Z,969.28
2023-03-27T02:38:41.686Z,969.26
2023-03-27T02:39:41.870Z,969.26
2023-03-27T02:40:41.655Z,969.23
2023-03-27T02:41:41.886Z,969.33
2023-03-27T02:42:41.649Z,969.32
2023-03-27T02:43:42.011Z,969.36
2023-03-27T02:44:46.342Z,969.49
2023-03-27T02:45:42.617Z,969.33
2023-03-27T02:46:41.578Z,969.43
2023-03-27T02:47:41.576Z,969.42
2023-03-27T02:48:41.545Z,969.53
2023-03-27T02:49:41.536Z,969.46
2023-03-27T02:50:41.525Z,969.45
2023-03-27T02:51:41.529Z,969.49
2023-03-27T02:52:41.798Z,969.58
2023-03-27T02:53:41.490Z,969.54
2023-03-27T02:54:41.474Z,969.51
2023-03-27T02:55:41.457Z,969.59
2023-03-27T02:56:41.468Z,969.63
2023-03-27T02:57:41.426Z,969.70
2023-03-27T02:58:42.527Z,969.70
2023-03-27T02:59:41.397Z,969.73
2023-03-27T03:00:41.391Z,969.69
2023-03-27T03:01:41.413Z,969.70
2023-03-27T03:02:41.427Z,969.67
2023-03-27T03:03:41.345Z,969.78
2023-03-27T03:04:41.341Z,969.82
2023-03-27T03:05:41.364Z,969.87
2023-03-27T03:06:41.311Z,969.84
2023-03-27T03:07:41.299Z,969.89
2023-03-27T03:08:41.283Z,969.92
2023-03-27T03:09:41.366Z,969.95
2023-03-27T03:10:41.257Z,970.01
2023-03-27T03:11:41.243Z,970.01
2023-03-27T03:12:41.225Z,970.11
2023-03-27T03:13:41.228Z,970.16
2023-03-27T03:14:41.229Z,970.17
2023-03-27T03:15:41.192Z,970.14
2023-03-27T03:16:41.237Z,970.23
2023-03-27T03:17:41.180Z,970.31
2023-03-27T03:18:41.142Z,970.35
2023-03-27T03:19:41.132Z,970.39
2023-03-27T03:20:41.122Z,970.42
2023-03-27T03:21:41.102Z,970.44
2023-03-27T03:22:41.095Z,970.45
2023-03-27T03:23:41.072Z,970.53
2023-03-27T03:24:41.070Z,970.62
2023-03-27T03:25:41.054Z,970.61
2023-03-27T03:26:41.040Z,970.67
2023-03-27T03:27:41.024Z,970.64
2023-03-27T03:28:41.018Z,970.53
2023-03-27T03:29:42.028Z,970.66
2023-03-27T03:30:41.054Z,970.67
2023-03-27T03:31:40.969Z,970.74
2023-03-27T03:32:41.003Z,970.74
2023-03-27T03:33:40.947Z,970.72
2023-03-27T03:34:40.932Z,970.73
2023-03-27T03:35:40.926Z,970.85
2023-03-27T03:36:40.902Z,970.76
2023-03-27T03:37:40.891Z,970.74
2023-03-27T03:38:40.875Z,970.85
2023-03-27T03:39:40.889Z,970.83
2023-03-27T03:40:40.849Z,970.87
2023-03-27T03:41:40.848Z,970.94
2023-03-27T03:42:40.825Z,970.94
2023-03-27T03:43:40.813Z,970.97
2023-03-27T03:44:40.793Z,971.04
2023-03-27T03:45:40.788Z,971.03
2023-03-27T03:46:40.885Z,971.00
2023-03-27T03:47:40.796Z,971.06
2023-03-27T03:48:40.744Z,971.11
2023-03-27T03:49:40.735Z,971.17
2023-03-27T03:50:40.918Z,971.26
2023-03-27T03:51:40.711Z,971.21
2023-03-27T03:52:40.689Z,971.29
2023-03-27T03:53:40.678Z,971.22
2023-03-27T03:54:40.661Z,971.29
2023-03-27T03:55:40.647Z,971.32
2023-03-27T03:56:40.661Z,971.34
2023-03-27T03:57:40.612Z,971.36
2023-03-27T03:58:40.603Z,971.36
2023-03-27T03:59:40.597Z,971.46
2023-03-27T04:00:40.584Z,971.43
2023-03-27T04:01:40.591Z,971.43
2023-03-27T04:02:40.687Z,971.50
2023-03-27T04:03:40.629Z,971.52
2023-03-27T04:04:40.525Z,971.54
2023-03-27T04:05:40.509Z,971.60
2023-03-27T04:06:40.497Z,971.60
2023-03-27T04:07:40.634Z,971.66
2023-03-27T04:08:40.468Z,971.66
2023-03-27T04:09:40.459Z,971.75
2023-03-27T04:10:40.444Z,971.73
2023-03-27T04:11:40.426Z,971.80
2023-03-27T04:12:40.410Z,971.78
2023-03-27T04:13:40.406Z,971.84
2023-03-27T04:14:40.386Z,971.90
2023-03-27T04:15:40.418Z,971.86
2023-03-27T04:16:40.360Z,971.95
2023-03-27T04:17:40.444Z,972.06
2023-03-27T04:18:40.427Z,972.07
2023-03-27T04:19:40.318Z,972.08
2023-03-27T04:20:40.297Z,972.08
2023-03-27T04:21:40.288Z,972.03
2023-03-27T04:22:40.422Z,972.14
2023-03-27T04:23:40.258Z,972.07
2023-03-27T04:24:40.250Z,972.20
2023-03-27T04:25:40.303Z,972.17
2023-03-27T04:26:40.215Z,972.28
2023-03-27T04:27:40.204Z,972.27
2023-03-27T04:28:40.196Z,972.32
2023-03-27T04:29:40.182Z,972.37
2023-03-27T04:30:40.169Z,972.39
2023-03-27T04:31:40.207Z,972.41
2023-03-27T04:32:40.182Z,972.43
2023-03-27T04:33:40.130Z,972.41
2023-03-27T04:34:40.137Z,972.45
2023-03-27T04:35:40.167Z,972.50
2023-03-27T04:36:40.083Z,972.53
2023-03-27T04:37:40.076Z,972.52
2023-03-27T04:38:40.070Z,972.52
2023-03-27T04:39:40.054Z,972.56
2023-03-27T04:40:40.036Z,972.61
2023-03-27T04:41:40.017Z,972.64
2023-03-27T04:42:40.008Z,972.69
2023-03-27T04:43:39.998Z,972.68
2023-03-27T04:44:39.978Z,972.66
2023-03-27T04:45:39.971Z,972.78
2023-03-27T04:46:39.967Z,972.79
2023-03-27T04:47:39.990Z,972.85
2023-03-27T04:48:39.951Z,972.97
2023-03-27T04:49:39.910Z,972.90
2023-03-27T04:50:39.916Z,972.96
2023-03-27T04:51:39.888Z,972.95
2023-03-27T04:52:39.868Z,973.01
2023-03-27T04:53:39.871Z,973.05
2023-03-27T04:54:39.993Z,973.08
2023-03-27T04:55:39.829Z,973.15
2023-03-27T04:56:39.818Z,973.20
2023-03-27T04:57:39.828Z,973.27
2023-03-27T04:58:39.795Z,973.23
2023-03-27T04:59:39.778Z,973.26
2023-03-27T05:00:39.754Z,973.18
2023-03-27T05:01:39.785Z,973.28
2023-03-27T05:02:39.766Z,973.30
2023-03-27T05:03:39.749Z,973.35
2023-03-27T05:04:39.706Z,973.35
2023-03-27T05:05:39.691Z,973.29
2023-03-27T05:06:40.642Z,973.28
2023-03-27T05:07:39.663Z,973.41
2023-03-27T05:08:39.648Z,973.46
2023-03-27T05:09:39.643Z,973.54
2023-03-27T05:10:39.628Z,973.53
2023-03-27T05:11:39.626Z,973.51
2023-03-27T05:12:39.592Z,973.57
2023-03-27T05:13:39.590Z,973.64
2023-03-27T05:14:39.568Z,973.67
2023-03-27T05:15:39.560Z,973.77
2023-03-27T05:16:39.576Z,973.82
2023-03-27T05:17:39.616Z,973.79
2023-03-27T05:18:41.794Z,973.86
2023-03-27T05:19:39.506Z,973.93
2023-03-27T05:20:39.482Z,974.00
2023-03-27T05:21:39.550Z,973.94
2023-03-27T05:22:39.482Z,974.04
2023-03-27T05:23:39.457Z,973.96
2023-03-27T05:24:39.434Z,974.08
2023-03-27T05:25:39.447Z,974.05
2023-03-27T05:26:39.408Z,974.14
2023-03-27T05:27:39.395Z,974.13
2023-03-27T05:28:39.389Z,974.13
2023-03-27T05:29:46.835Z,974.17
2023-03-27T05:30:40.441Z,974.18
2023-03-27T05:31:39.347Z,974.22
2023-03-27T05:32:39.366Z,974.28
2023-03-27T05:33:39.318Z,974.30
2023-03-27T05:34:39.302Z,974.30
2023-03-27T05:35:39.317Z,974.33
2023-03-27T05:36:39.284Z,974.28
2023-03-27T05:37:39.274Z,974.32
2023-03-27T05:38:39.505Z,974.34
2023-03-27T05:39:39.248Z,974.39
2023-03-27T05:40:39.223Z,974.41
2023-03-27T05:41:39.206Z,974.41
2023-03-27T05:42:39.192Z,974.46
2023-03-27T05:43:39.524Z,974.51
2023-03-27T05:44:39.171Z,974.50
2023-03-27T05:45:39.161Z,974.49
2023-03-27T05:46:39.167Z,974.50
2023-03-27T05:47:39.160Z,974.60
2023-03-27T05:48:39.125Z,974.61
2023-03-27T05:49:39.102Z,974.67
2023-03-27T05:50:39.092Z,974.66
2023-03-27T05:51:39.087Z,974.72
2023-03-27T05:52:40.086Z,974.67
2023-03-27T05:53:39.053Z,974.73
2023-03-27T05:54:39.078Z,974.78
2023-03-27T05:55:39.028Z,974.78
2023-03-27T05:56:39.064Z,974.82
2023-03-27T05:57:39.002Z,974.76
2023-03-27T05:58:38.993Z,974.75
2023-03-27T05:59:38.974Z,974.79
2023-03-27T06:00:38.965Z,974.89
2023-03-27T06:01:38.944Z,974.92
2023-03-27T06:02:39.049Z,974.92
2023-03-27T06:03:39.185Z,975.01
2023-03-27T06:04:38.942Z,975.00
2023-03-27T06:05:38.891Z,975.01
2023-03-27T06:06:38.879Z,975.09
2023-03-27T06:07:40.857Z,975.17
2023-03-27T06:08:38.879Z,975.19
2023-03-27T06:09:38.842Z,975.20
2023-03-27T06:10:39.157Z,975.16
2023-03-27T06:11:38.924Z,975.20
2023-03-27T06:12:38.807Z,975.21
2023-03-27T06:13:38.795Z,975.23
2023-03-27T06:14:38.781Z,975.19
2023-03-27T06:15:38.784Z,975.20
2023-03-27T06:16:38.754Z,975.19
2023-03-27T06:17:38.735Z,975.20
2023-03-27T06:18:38.749Z,975.27
2023-03-27T06:19:38.718Z,975.28
2023-03-27T06:20:38.697Z,975.37
2023-03-27T06:21:40.948Z,975.39
2023-03-27T06:22:38.677Z,975.44
2023-03-27T06:23:38.663Z,975.41
2023-03-27T06:24:38.661Z,975.49
2023-03-27T06:25:38.638Z,975.46
2023-03-27T06:26:38.640Z,975.49
2023-03-27T06:27:38.602Z,975.50
2023-03-27T06:28:38.595Z,975.57
2023-03-27T06:29:38.583Z,975.56
2023-03-27T06:30:38.565Z,975.57
2023-03-27T06:31:38.567Z,975.66
2023-03-27T06:32:38.564Z,975.58
2023-03-27T06:33:38.540Z,975.64
2023-03-27T06:34:38.526Z,975.72
2023-03-27T06:35:38.523Z,975.67
2023-03-27T06:36:38.487Z,975.60
2023-03-27T06:37:38.469Z,975.65
2023-03-27T06:38:38.468Z,975.68
2023-03-27T06:39:38.441Z,975.67
2023-03-27T06:40:38.434Z,975.68
2023-03-27T06:41:38.519Z,975.77
2023-03-27T06:42:38.436Z,975.78
2023-03-27T06:43:38.389Z,975.81
2023-03-27T06:44:38.372Z,975.84
2023-03-27T06:45:38.358Z,975.84
2023-03-27T06:46:45.148Z,975.83
2023-03-27T06:47:51.701Z,975.93
2023-03-27T06:48:39.402Z,975.97
2023-03-27T06:49:38.307Z,975.95
2023-03-27T06:50:38.293Z,976.01
2023-03-27T06:51:38.296Z,975.98
2023-03-27T06:52:38.288Z,976.07
2023-03-27T06:53:38.379Z,976.01
2023-03-27T06:54:38.235Z,976.11
2023-03-27T06:55:38.223Z,975.97
2023-03-27T06:56:38.231Z,976.05
2023-03-27T06:57:38.324Z,976.12
2023-03-27T06:58:38.212Z,976.15
2023-03-27T06:59:38.203Z,976.20
2023-03-27T07:00:38.397Z,976.29
2023-03-27T07:01:38.157Z,976.38
2023-03-27T07:02:38.193Z,976.31
2023-03-27T07:03:38.109Z,976.27
2023-03-27T07:04:38.108Z,976.41
2023-03-27T07:05:38.135Z,976.38
2023-03-27T07:06:39.640Z,976.39
2023-03-27T07:07:40.319Z,976.39
2023-03-27T07:08:38.045Z,976.42
2023-03-27T07:09:40.043Z,976.35
2023-03-27T07:10:38.012Z,976.30
2023-03-27T07:11:38.000Z,976.26
2023-03-27T07:12:37.990Z,976.37
2023-03-27T07:13:37.973Z,976.37
2023-03-27T07:14:37.985Z,976.39
2023-03-27T07:15:37.946Z,976.38
2023-03-27T07:16:38.231Z,976.40
2023-03-27T07:17:48.123Z,976.43
2023-03-27T07:18:38.929Z,976.45
2023-03-27T07:19:37.889Z,976.56
2023-03-27T07:20:37.873Z,976.53
2023-03-27T07:21:37.860Z,976.50
2023-03-27T07:22:37.847Z,976.53
2023-03-27T07:23:37.833Z,976.56
2023-03-27T07:24:37.820Z,976.70
2023-03-27T07:25:37.818Z,976.77
2023-03-27T07:26:37.800Z,976.76
2023-03-27T07:27:37.780Z,976.77
2023-03-27T07:28:37.771Z,976.79
2023-03-27T07:29:37.792Z,976.75
2023-03-27T07:30:37.770Z,976.76
2023-03-27T07:32:38.169Z,976.81
2023-03-27T07:33:37.741Z,976.75
2023-03-27T07:34:37.687Z,976.84
2023-03-27T07:35:37.683Z,976.80
2023-03-27T07:36:37.672Z,976.81
2023-03-27T07:37:38.217Z,976.76
2023-03-27T07:38:37.629Z,976.88
2023-03-27T07:39:37.632Z,976.81
2023-03-27T07:40:40.349Z,976.79
2023-03-27T07:41:37.583Z,976.89
2023-03-27T07:42:37.571Z,976.77
2023-03-27T07:43:37.560Z,976.77
2023-03-27T07:44:37.547Z,976.79
2023-03-27T07:45:37.576Z,976.84
2023-03-27T07:46:37.543Z,976.80
2023-03-27T07:47:37.525Z,976.82
2023-03-27T07:48:37.498Z,976.75
2023-03-27T07:49:38.832Z,976.83
2023-03-27T07:50:37.491Z,976.87
2023-03-27T07:51:37.454Z,977.00
2023-03-27T07:52:37.438Z,976.91
2023-03-27T07:53:37.429Z,976.92
2023-03-27T07:54:37.415Z,976.93
2023-03-27T07:55:37.401Z,976.87
2023-03-27T07:56:37.479Z,976.89
2023-03-27T07:57:46.431Z,976.82
2023-03-27T07:58:38.413Z,976.93
2023-03-27T07:59:37.350Z,976.92
2023-03-27T08:00:37.333Z,976.91
2023-03-27T08:01:37.316Z,976.99
2023-03-27T08:02:37.364Z,976.93
2023-03-27T08:03:37.514Z,977.02
2023-03-27T08:04:37.371Z,976.99
2023-03-27T08:05:37.278Z,977.11
2023-03-27T08:06:37.254Z,977.08
2023-03-27T08:07:37.245Z,977.21
2023-03-27T08:08:37.224Z,977.18
2023-03-27T08:09:37.212Z,977.21
2023-03-27T08:10:37.197Z,977.26
2023-03-27T08:11:37.183Z,977.25
2023-03-27T08:12:37.170Z,977.30
2023-03-27T08:13:37.157Z,977.29
2023-03-27T08:14:37.149Z,977.38
2023-03-27T08:15:37.124Z,977.38
2023-03-27T08:16:37.162Z,977.36
2023-03-27T08:17:37.219Z,977.39
2023-03-27T08:18:37.107Z,977.34
2023-03-27T08:19:37.073Z,977.42
2023-03-27T08:20:37.066Z,977.47
2023-03-27T08:21:37.048Z,977.45
2023-03-27T08:22:37.050Z,977.49
2023-03-27T08:23:37.025Z,977.45
2023-03-27T08:24:37.012Z,977.52
2023-03-27T08:25:37.262Z,977.53
2023-03-27T08:26:36.993Z,977.53
2023-03-27T08:27:36.979Z,977.63
2023-03-27T08:28:36.952Z,977.49
2023-03-27T08:29:36.946Z,977.57
2023-03-27T08:30:36.949Z,977.59
2023-03-27T08:31:36.912Z,977.57
2023-03-27T08:32:36.962Z,977.59
2023-03-27T08:33:36.884Z,977.57
2023-03-27T08:34:36.896Z,977.57
2023-03-27T08:35:36.906Z,977.67
2023-03-27T08:36:36.839Z,977.58
2023-03-27T08:37:36.825Z,977.58
2023-03-27T08:38:36.812Z,977.57
2023-03-27T08:39:36.798Z,977.51
2023-03-27T08:40:36.792Z,977.56
2023-03-27T08:41:36.772Z,977.58
2023-03-27T08:42:36.853Z,977.47
2023-03-27T08:43:36.743Z,977.49
2023-03-27T08:44:36.787Z,977.61
2023-03-27T08:45:36.730Z,977.52
2023-03-27T08:46:36.749Z,977.40
2023-03-27T08:47:37.162Z,977.44
2023-03-27T08:48:36.680Z,977.45
2023-03-27T08:49:36.668Z,977.47
2023-03-27T08:50:36.684Z,977.39
2023-03-27T08:51:36.639Z,977.39
2023-03-27T08:52:36.664Z,977.37
2023-03-27T08:53:36.611Z,977.33
2023-03-27T08:54:36.602Z,977.41
2023-03-27T08:55:36.587Z,977.32
2023-03-27T08:56:36.632Z,977.51
2023-03-27T08:57:36.558Z,977.49
2023-03-27T08:58:36.849Z,977.43
2023-03-27T08:59:36.536Z,977.47
2023-03-27T09:00:36.526Z,977.53
2023-03-27T09:01:36.611Z,977.56
2023-03-27T09:02:36.782Z,977.56
2023-03-27T09:03:36.531Z,977.61
2023-03-27T09:04:37.688Z,977.54
2023-03-27T09:05:36.453Z,977.38
2023-03-27T09:06:36.471Z,977.43
2023-03-27T09:07:36.466Z,977.46
2023-03-27T09:08:36.411Z,977.50
2023-03-27T09:09:36.421Z,977.42
2023-03-27T09:10:36.385Z,977.41
2023-03-27T09:11:36.369Z,977.39
2023-03-27T09:12:38.406Z,977.39
2023-03-27T09:13:36.344Z,977.45
2023-03-27T09:14:36.324Z,977.33
2023-03-27T09:15:36.307Z,977.42
2023-03-27T09:16:36.337Z,977.44
2023-03-27T09:17:36.327Z,977.28
2023-03-27T09:18:36.269Z,977.42
2023-03-27T09:19:36.261Z,977.39
2023-03-27T09:20:36.241Z,977.37
2023-03-27T09:21:36.229Z,977.38
2023-03-27T09:22:36.237Z,977.41
2023-03-27T09:23:36.202Z,977.45
2023-03-27T09:24:36.192Z,977.41
2023-03-27T09:25:36.174Z,977.34
2023-03-27T09:26:36.166Z,977.41
2023-03-27T09:27:36.152Z,977.58
2023-03-27T09:28:36.135Z,977.65
2023-03-27T09:29:36.124Z,977.55
2023-03-27T09:30:36.329Z,977.47
2023-03-27T09:31:36.154Z,977.58
2023-03-27T09:32:36.101Z,977.63
2023-03-27T09:33:36.073Z,977.61
2023-03-27T09:34:36.058Z,977.51
2023-03-27T09:35:36.071Z,977.50
2023-03-27T09:36:36.045Z,977.49
2023-03-27T09:37:37.059Z,977.56
2023-03-27T09:38:36.025Z,977.52
2023-03-27T09:39:35.982Z,977.58
2023-03-27T09:40:35.969Z,977.51
2023-03-27T09:41:35.960Z,977.43
2023-03-27T09:42:35.940Z,977.27
2023-03-27T09:43:35.942Z,977.46
2023-03-27T09:44:35.915Z,977.59
2023-03-27T09:45:35.900Z,977.75
2023-03-27T09:46:35.934Z,977.59
2023-03-27T09:47:35.937Z,977.51
2023-03-27T09:48:35.881Z,977.49
2023-03-27T09:49:35.854Z,977.62
2023-03-27T09:50:35.849Z,977.71
2023-03-27T09:51:35.828Z,977.76
2023-03-27T09:52:35.826Z,977.86
2023-03-27T09:53:35.953Z,977.90
2023-03-27T09:54:35.808Z,977.89
2023-03-27T09:55:35.774Z,978.00
2023-03-27T09:56:35.778Z,977.90
2023-03-27T09:57:35.751Z,977.72
2023-03-27T09:58:35.727Z,977.83
2023-03-27T09:59:35.731Z,977.78
2023-03-27T10:00:35.737Z,977.68
2023-03-27T10:01:35.932Z,977.60
2023-03-27T10:02:35.703Z,977.63
2023-03-27T10:03:35.717Z,977.64
2023-03-27T10:04:35.678Z,977.78
2023-03-27T10:05:35.643Z,977.77
2023-03-27T10:06:35.636Z,977.69
2023-03-27T10:07:35.604Z,977.63
2023-03-27T10:08:35.602Z,977.71
2023-03-27T10:09:35.584Z,977.69
2023-03-27T10:10:35.595Z,977.61
2023-03-27T10:11:35.563Z,977.67
2023-03-27T10:12:35.547Z,977.59
2023-03-27T10:13:35.534Z,977.59
2023-03-27T10:14:35.524Z,977.66
2023-03-27T10:15:35.498Z,977.75
2023-03-27T10:16:35.535Z,977.84
2023-03-27T10:17:35.516Z,978.02
2023-03-27T10:18:35.480Z,977.83
2023-03-27T10:19:35.454Z,977.74
2023-03-27T10:20:35.438Z,977.85
2023-03-27T10:21:35.433Z,977.78
2023-03-27T10:22:35.405Z,977.86
2023-03-27T10:23:35.419Z,977.76
2023-03-27T10:24:35.381Z,977.75
2023-03-27T10:25:35.370Z,977.89
2023-03-27T10:26:35.398Z,977.84
2023-03-27T10:27:35.342Z,977.94
2023-03-27T10:28:35.327Z,977.84
2023-03-27T10:29:35.322Z,977.89
2023-03-27T10:30:35.304Z,977.88
2023-03-27T10:31:35.305Z,977.80
2023-03-27T10:32:35.469Z,977.84
2023-03-27T10:33:35.271Z,977.89
2023-03-27T10:34:35.251Z,977.84
2023-03-27T10:35:36.750Z,978.10
2023-03-27T10:36:35.225Z,978.03
2023-03-27T10:37:35.370Z,978.00
2023-03-27T10:38:35.198Z,977.96
2023-03-27T10:39:35.176Z,977.90
2023-03-27T10:40:35.170Z,977.87
2023-03-27T10:41:35.150Z,977.93
2023-03-27T10:42:35.168Z,978.21
2023-03-27T10:43:35.127Z,977.99
2023-03-27T10:44:35.119Z,978.01
2023-03-27T10:45:35.099Z,978.06
2023-03-27T10:46:35.165Z,977.93
2023-03-27T10:47:35.111Z,978.03
2023-03-27T10:48:35.060Z,978.06
2023-03-27T10:49:35.041Z,978.03
2023-03-27T10:50:35.032Z,978.14
2023-03-27T10:51:45.469Z,978.11
2023-03-27T10:52:36.033Z,978.15
2023-03-27T10:53:35.086Z,978.28
2023-03-27T10:54:35.042Z,978.30
2023-03-27T10:55:34.970Z,978.31
2023-03-27T10:56:34.976Z,978.40
2023-03-27T10:57:34.934Z,978.42
2023-03-27T10:58:34.951Z,978.54
2023-03-27T10:59:41.543Z,978.61
2023-03-27T11:00:35.915Z,978.40
2023-03-27T11:01:34.930Z,978.48
2023-03-27T11:02:34.893Z,978.40
2023-03-27T11:03:34.892Z,978.42
2023-03-27T11:04:34.835Z,978.41
2023-03-27T11:05:34.860Z,978.34
2023-03-27T11:06:34.829Z,978.34
2023-03-27T11:07:34.801Z,978.36
2023-03-27T11:08:34.795Z,978.55
2023-03-27T11:09:34.774Z,978.53
2023-03-27T11:10:34.753Z,978.61
2023-03-27T11:11:34.765Z,978.69
2023-03-27T11:12:34.728Z,978.78
2023-03-27T11:13:34.722Z,978.77
2023-03-27T11:14:34.718Z,978.83
2023-03-27T11:15:34.686Z,978.91
2023-03-27T11:16:34.698Z,978.89
2023-03-27T11:17:34.661Z,978.91
2023-03-27T11:18:34.653Z,978.75
2023-03-27T11:19:34.701Z,978.86
2023-03-27T11:20:34.729Z,978.92
2023-03-27T11:21:34.752Z,978.89
2023-03-27T11:22:34.668Z,978.87
2023-03-27T11:23:34.574Z,978.80
2023-03-27T11:24:34.588Z,978.91
2023-03-27T11:25:34.541Z,978.75
2023-03-27T11:26:34.536Z,978.73
2023-03-27T11:27:34.523Z,978.69
2023-03-27T11:28:34.515Z,978.62
2023-03-27T11:29:35.131Z,978.56
2023-03-27T11:30:34.638Z,978.72
2023-03-27T11:31:34.699Z,978.51
2023-03-27T11:32:34.467Z,978.54
2023-03-27T11:33:34.441Z,978.43
2023-03-27T11:34:34.439Z,978.42
2023-03-27T11:35:34.464Z,978.41
2023-03-27T11:36:34.409Z,978.56
2023-03-27T11:37:34.510Z,978.62
2023-03-27T11:38:34.454Z,978.73
2023-03-27T11:39:34.447Z,978.82
2023-03-27T11:40:34.353Z,978.82
2023-03-27T11:41:34.381Z,978.86
2023-03-27T11:42:34.318Z,978.93
2023-03-27T11:43:34.297Z,979.06
2023-03-27T11:44:34.289Z,978.80
2023-03-27T11:45:34.279Z,978.77
2023-03-27T11:46:34.362Z,978.77
2023-03-27T11:47:34.260Z,978.73
2023-03-27T11:48:34.237Z,978.70
2023-03-27T11:49:34.235Z,978.64
2023-03-27T11:50:34.219Z,978.67
2023-03-27T11:51:34.200Z,978.62
2023-03-27T11:52:34.184Z,978.61
2023-03-27T11:53:34.169Z,978.61
2023-03-27T11:54:34.155Z,978.59
2023-03-27T11:55:34.156Z,978.55
2023-03-27T11:56:34.332Z,978.44
2023-03-27T11:57:34.299Z,978.51
2023-03-27T11:58:34.106Z,978.55
2023-03-27T11:59:34.086Z,978.57
2023-03-27T12:00:34.077Z,978.69
2023-03-27T12:01:34.061Z,978.70
2023-03-27T12:02:34.256Z,978.73
2023-03-27T12:03:34.104Z,978.80
2023-03-27T12:04:34.018Z,978.83
2023-03-27T12:05:34.006Z,978.93
2023-03-27T12:06:33.995Z,978.90
2023-03-27T12:07:36.455Z,978.95
2023-03-27T12:08:33.963Z,979.08
2023-03-27T12:09:33.944Z,978.86
2023-03-27T12:10:33.933Z,978.71
2023-03-27T12:11:33.932Z,978.66
2023-03-27T12:12:33.916Z,978.66
2023-03-27T12:13:41.136Z,978.58
2023-03-27T12:14:40.555Z,978.48
2023-03-27T12:15:34.901Z,978.59
2023-03-27T12:16:33.895Z,978.58
2023-03-27T12:17:33.879Z,978.61
2023-03-27T12:18:36.363Z,978.37
2023-03-27T12:20:33.810Z,978.49
2023-03-27T12:21:33.942Z,978.58
2023-03-27T12:22:33.781Z,978.75
2023-03-27T12:23:34.013Z,978.65
2023-03-27T12:24:33.752Z,978.70
2023-03-27T12:25:36.073Z,978.70
2023-03-27T12:26:33.727Z,978.81
2023-03-27T12:27:33.706Z,978.77
2023-03-27T12:28:33.902Z,978.92
2023-03-27T12:29:33.704Z,978.89
2023-03-27T12:30:33.817Z,978.95